Aérodrome :
LOGIN :

S'inscrire | Disclaimer

   EN    FR    IT 

 










Légende :    VFR   VFR Marginal   IFR   IFR Intensif   IFR Très Intensif
Visi : 
Plafond : 
>= 8 km
>= 3000ft
5 à 8 km
1000 à 3000 ft
1500m à 5 km
500 à 1000 ft
800 à 1500m
200 à 500 ft
< 800m
< 200 ft
Symboles :   Orages  Brouillard  Fortes neiges  Fortes précipitations  Vent > 20 kt
SIGMETs :   Divers  Orages  Givrage  Turbulence  Onde Orograph.  Cendres Volcan.






- Altitude de l'aérodrome : 325 ft
- Code IATA : POX


LFPT - Pontoise

DERNIER METAR :
  • 140100Z AUTO 16014KT 9999 -RA FEW012 BKN017 BKN022 06/03 Q0992

METARs EXPIRÉS :
  • 140030Z AUTO 17012KT 7000 -SNRA SCT016 BKN022 OVC030 06/04 Q0993
  • 140000Z AUTO 17010KT 9999 -RA BKN020/// BKN033/// OVC043/// ///TCU 06/03 Q0993
  • 132330Z AUTO 17013KT 9999 -RA SCT020 BKN043 07/03 Q0994
  • 132300Z AUTO 17011KT 9999 FEW020 SCT039 BKN070 07/03 Q0994
  • 132230Z AUTO 15010KT 9999 SCT020 SCT047 BKN078 07/03 Q0995

TAF N/A
ATIS : +33 1 30 30 52 08



MET'MAP, la Météo Aéronautique d'un coup d'oeil ! - Copyright ORBIFLY Décembre 2007 - Disclaimer

ORBIFLY MET'MAP TEAM :

Programmation & Développement : Alexandra Zaïnal
Conception & Développement : Baudouin d'Aumeries
Co-Programmation & Développement : Marc-Olivier Méhu
Soutien technique & logistique : Manuel Goepfert

Contact : metmap@orbifly.com




SOURCES & CREDITS :

   NOAA